Papineau, Illinois
Current Conditions -  °F | °C
As of 5:35 PM on Monday 20 Oct 2014 (Local Time) from KIKK Reporting Station
Overcast Overcast  
Wind Chill: 63°   Ceiling: 6500
Heat Index: 63°   Visibility: 10mi
Dew Point: 45°   Wind: 15mph
Humidity: 52%   Direction: 310°NW
Pressure: 29.91"   Gusts: 21mph
Location:  40.97°N, 87.72°W
Report Text: KIKK 202235Z AUTO 31013G18KT 10SM SCT060 OVC065 17/07 A2991 RMK AO2 T01720073
Loading
Personal Weather Stations






























Interactive Weather Map
Tropical Storm Tracking
New forecast layout! Learn more

10-Day Weather Forecast

Advertisements
Track Severe Weather on mobile